Terminal Aerodrome Forecast
Issued by NWS

Current Version | Previous Version | Text Only | Print | Product List | Glossary Off
Versions: 1 2 3 4 5 6 7 8 9 10 11 12 13 14

000
FTUS41 KPBZ 181720
TAFHLG
TAF
KHLG 181720Z 1818/1918 24009G18KT P6SM SCT040
     FM190100 24006KT P6SM SCT040
     FM190700 24003KT 3SM BR SCT110
     FM191000 23004KT 1SM BR SCT015
     FM191300 24005KT 5SM BR SCT015
     FM191400 24007KT P6SM SCT035=

USA.gov is the U.S. government's official web portal to all federal, state and local government web resources and services.